sim
Sign-in with your pilot id or email,
or register
Callsign
Passwort

Schedule Details

Flight Number: RYR6446 (2)
Departure: Brussels South Charleroi Airport (EBCI) at 06:00
Arrival: Thessaloniki International Airport (LGTS) at 08:45
Route: Ryanair Passenger Schedule. Enter filed route here before submitting Pirep.

Weather Information
Getting current METAR information for EBCI 230550Z 11003KT 060V160 CAVOK 14/12 Q1026 NOSIG
Getting current METAR information for LGTS 230550Z VRB02KT CAVOK 27/18 Q1019 NOSIG

Schedule Frequency

Route Map